< < Back
Terminal Aerodrome Forecast


Current Version              Previous Versions:   1  2  3  4  5  6  7  8  9  

Terminal Aerodrome Forecast

915
FTUS42 KTAE 220500
TAFABY
TAF
KABY 220539Z 2206/2306 00000KT P6SM SKC
     FM221500 01007KT P6SM SKC=

Latest METAR

399
SAUS70 KWBC 221500 RRW
MTRABY
METAR KABY 221453Z 07005KT 10SM CLR 19/09 A3011 RMK AO2 SLP195 T01890094
50009


USA.gov is the U.S. government's official web portal to all federal, state and local government web resources and services.